Tianjin Binhai International Airport
ZBTJ : now visible

Airfield :











YOU CAN JOIN US ON...

 
LOGIN :

Register | Disclaimer

   EN    FR    IT 

 









Legend :    VFR   Marginal VFR   IFR   Intensive IFR   Very Intensive IFR
Visi :
Ceiling :
>= 8 km
>= 3000ft
5 to 8 km
1000 to 3000 ft
1500m to 5 km
500 to 1000 ft
800 to 1500m
200 to 500 ft
< 800m
< 200 ft
Symbols :   Thunderstorms  Fog  Heavy snow  Heavy precipitations  Wind > 20 kt






- Airport Elevation : 10 ft
- IATA code : TSN


ZBTJ - Tianjin Binhai International

CURRENT METAR :
  • 211430Z 16002MPS CAVOK 14/09 Q1011 NOSIG

EXPIRED METARs :
  • 211400Z 16003MPS CAVOK 14/09 Q1011 NOSIG
  • 211330Z 15003MPS CAVOK 15/09 Q1011 NOSIG
  • 211300Z 14003MPS CAVOK 16/09 Q1011 NOSIG
  • 211230Z 14004MPS CAVOK 16/09 Q1010 NOSIG
  • 211200Z 14005MPS CAVOK 16/09 Q1010 NOSIG
  • 211130Z 14004MPS CAVOK 16/10 Q1010 NOSIG
  • 211100Z 14005MPS CAVOK 17/10 Q1009 NOSIG
  • 211030Z 15005MPS CAVOK 18/11 Q1009 NOSIG
  • 211000Z 16006MPS CAVOK 19/10 Q1009 NOSIG

TAF TAF ZBTJ
Valid from the 21 at 12:00 until the 22 at 12:00 UTC


210901Z 2112/2212 13004MPS 3000 BR SCT020 TX28/2206Z TN11/2122Z
ZBPE FIR / Asia



MET'MAP, your aeronautical weather chart ! - Copyright ORBIFLY December 2007 - Disclaimer

ORBIFLY MET'MAP TEAM :

Programming & Development : Alexandra Zaïnal
Original concept : Baudouin d'Aumeries
Technical & hardware support : Manuel Goepfert
Assistance : Marc-Olivier Méhu




SOURCES & CREDITS :

   NOAA       Earth
Advisory